sensor_id;sensor_type;location;lat;lon;timestamp;P1;durP1;ratioP1;P2;durP2;ratioP2
16153;SDS011;8182;55.648;13.208;2023-07-24T00:00:34;10.20;;;7.20;;
16153;SDS011;8182;55.648;13.208;2023-07-24T00:03:01;9.13;;;6.83;;
16153;SDS011;8182;55.648;13.208;2023-07-24T00:05:28;9.70;;;6.67;;
16153;SDS011;8182;55.648;13.208;2023-07-24T00:07:55;8.20;;;6.63;;
16153;SDS011;8182;55.648;13.208;2023-07-24T00:10:25;9.83;;;6.70;;
16153;SDS011;8182;55.648;13.208;2023-07-24T00:12:52;10.33;;;7.60;;
16153;SDS011;8182;55.648;13.208;2023-07-24T00:15:27;8.90;;;6.80;;
16153;SDS011;8182;55.648;13.208;2023-07-24T00:17:54;9.80;;;6.90;;
16153;SDS011;8182;55.648;13.208;2023-07-24T00:20:21;9.67;;;6.60;;
16153;SDS011;8182;55.648;13.208;2023-07-24T00:22:49;13.27;;;6.67;;
16153;SDS011;8182;55.648;13.208;2023-07-24T00:25:16;12.27;;;7.07;;
16153;SDS011;8182;55.648;13.208;2023-07-24T00:27:43;9.63;;;6.40;;
16153;SDS011;8182;55.648;13.208;2023-07-24T00:30:10;10.20;;;6.43;;
16153;SDS011;8182;55.648;13.208;2023-07-24T00:32:39;10.20;;;6.70;;
16153;SDS011;8182;55.648;13.208;2023-07-24T00:35:06;8.70;;;6.47;;
16153;SDS011;8182;55.648;13.208;2023-07-24T00:37:34;9.00;;;6.30;;
16153;SDS011;8182;55.648;13.208;2023-07-24T00:40:01;8.90;;;6.33;;
16153;SDS011;8182;55.648;13.208;2023-07-24T00:42:29;11.53;;;6.63;;
16153;SDS011;8182;55.648;13.208;2023-07-24T00:44:56;11.77;;;6.60;;
16153;SDS011;8182;55.648;13.208;2023-07-24T00:47:23;9.37;;;6.00;;
16153;SDS011;8182;55.648;13.208;2023-07-24T00:49:54;13.83;;;6.60;;
16153;SDS011;8182;55.648;13.208;2023-07-24T00:52:22;10.93;;;6.13;;
16153;SDS011;8182;55.648;13.208;2023-07-24T00:54:51;10.87;;;6.47;;
16153;SDS011;8182;55.648;13.208;2023-07-24T00:57:20;7.90;;;6.37;;
16153;SDS011;8182;55.648;13.208;2023-07-24T00:59:47;13.63;;;6.70;;
16153;SDS011;8182;55.648;13.208;2023-07-24T01:02:14;8.40;;;6.10;;
16153;SDS011;8182;55.648;13.208;2023-07-24T01:04:41;11.33;;;6.47;;
16153;SDS011;8182;55.648;13.208;2023-07-24T01:07:09;10.13;;;6.70;;
16153;SDS011;8182;55.648;13.208;2023-07-24T01:09:37;7.40;;;6.23;;
16153;SDS011;8182;55.648;13.208;2023-07-24T01:12:05;8.83;;;5.90;;
16153;SDS011;8182;55.648;13.208;2023-07-24T01:14:40;9.27;;;6.10;;
16153;SDS011;8182;55.648;13.208;2023-07-24T01:17:12;10.20;;;6.73;;
16153;SDS011;8182;55.648;13.208;2023-07-24T01:19:46;8.60;;;6.00;;
16153;SDS011;8182;55.648;13.208;2023-07-24T01:22:20;10.30;;;6.67;;
16153;SDS011;8182;55.648;13.208;2023-07-24T01:27:45;10.50;;;7.00;;
16153;SDS011;8182;55.648;13.208;2023-07-24T01:30:13;10.33;;;6.63;;
16153;SDS011;8182;55.648;13.208;2023-07-24T01:32:44;9.10;;;6.40;;
16153;SDS011;8182;55.648;13.208;2023-07-24T01:35:11;9.50;;;6.67;;
16153;SDS011;8182;55.648;13.208;2023-07-24T01:37:38;8.63;;;6.50;;
16153;SDS011;8182;55.648;13.208;2023-07-24T01:40:08;8.53;;;6.73;;
16153;SDS011;8182;55.648;13.208;2023-07-24T01:42:36;11.73;;;6.50;;
16153;SDS011;8182;55.648;13.208;2023-07-24T01:45:05;10.77;;;7.43;;
16153;SDS011;8182;55.648;13.208;2023-07-24T01:47:33;13.57;;;6.57;;
16153;SDS011;8182;55.648;13.208;2023-07-24T01:50:00;10.97;;;6.90;;
16153;SDS011;8182;55.648;13.208;2023-07-24T01:52:27;11.47;;;6.73;;
16153;SDS011;8182;55.648;13.208;2023-07-24T01:54:55;10.60;;;6.80;;
16153;SDS011;8182;55.648;13.208;2023-07-24T01:57:23;11.83;;;7.47;;
16153;SDS011;8182;55.648;13.208;2023-07-24T01:59:50;14.27;;;7.30;;
16153;SDS011;8182;55.648;13.208;2023-07-24T02:02:18;11.97;;;7.67;;
16153;SDS011;8182;55.648;13.208;2023-07-24T02:04:45;13.30;;;7.37;;
16153;SDS011;8182;55.648;13.208;2023-07-24T02:07:13;12.97;;;7.97;;
16153;SDS011;8182;55.648;13.208;2023-07-24T02:09:40;12.53;;;7.63;;
16153;SDS011;8182;55.648;13.208;2023-07-24T02:12:07;12.23;;;7.27;;
16153;SDS011;8182;55.648;13.208;2023-07-24T02:14:34;13.17;;;8.10;;
16153;SDS011;8182;55.648;13.208;2023-07-24T02:17:01;12.97;;;7.70;;
16153;SDS011;8182;55.648;13.208;2023-07-24T02:19:30;15.30;;;7.53;;
16153;SDS011;8182;55.648;13.208;2023-07-24T02:21:57;13.33;;;7.10;;
16153;SDS011;8182;55.648;13.208;2023-07-24T02:24:24;12.60;;;7.30;;
16153;SDS011;8182;55.648;13.208;2023-07-24T02:26:51;13.53;;;7.43;;
16153;SDS011;8182;55.648;13.208;2023-07-24T02:29:18;10.60;;;7.27;;
16153;SDS011;8182;55.648;13.208;2023-07-24T02:31:45;14.33;;;7.30;;
16153;SDS011;8182;55.648;13.208;2023-07-24T02:34:12;11.73;;;7.50;;
16153;SDS011;8182;55.648;13.208;2023-07-24T02:36:40;15.00;;;7.50;;
16153;SDS011;8182;55.648;13.208;2023-07-24T02:39:08;11.47;;;7.80;;
16153;SDS011;8182;55.648;13.208;2023-07-24T02:41:35;11.43;;;7.20;;
16153;SDS011;8182;55.648;13.208;2023-07-24T02:44:02;12.87;;;7.43;;
16153;SDS011;8182;55.648;13.208;2023-07-24T02:46:29;14.10;;;7.30;;
16153;SDS011;8182;55.648;13.208;2023-07-24T02:48:56;10.17;;;7.20;;
16153;SDS011;8182;55.648;13.208;2023-07-24T02:51:26;10.70;;;7.00;;
16153;SDS011;8182;55.648;13.208;2023-07-24T02:53:55;15.77;;;7.47;;
16153;SDS011;8182;55.648;13.208;2023-07-24T02:56:22;13.00;;;7.13;;
16153;SDS011;8182;55.648;13.208;2023-07-24T02:58:49;13.83;;;7.27;;
16153;SDS011;8182;55.648;13.208;2023-07-24T03:01:16;13.17;;;6.80;;
16153;SDS011;8182;55.648;13.208;2023-07-24T03:03:43;12.73;;;7.37;;
16153;SDS011;8182;55.648;13.208;2023-07-24T03:06:10;10.37;;;6.97;;
16153;SDS011;8182;55.648;13.208;2023-07-24T03:08:37;15.33;;;7.97;;
16153;SDS011;8182;55.648;13.208;2023-07-24T03:11:05;12.03;;;6.90;;
16153;SDS011;8182;55.648;13.208;2023-07-24T03:13:33;15.27;;;7.63;;
16153;SDS011;8182;55.648;13.208;2023-07-24T03:16:00;10.63;;;6.90;;
16153;SDS011;8182;55.648;13.208;2023-07-24T03:18:27;8.67;;;6.63;;
16153;SDS011;8182;55.648;13.208;2023-07-24T03:20:56;10.73;;;7.00;;
16153;SDS011;8182;55.648;13.208;2023-07-24T03:23:23;13.20;;;6.83;;
16153;SDS011;8182;55.648;13.208;2023-07-24T03:25:55;13.03;;;6.90;;
16153;SDS011;8182;55.648;13.208;2023-07-24T03:28:27;13.97;;;7.00;;
16153;SDS011;8182;55.648;13.208;2023-07-24T03:30:57;11.53;;;6.83;;
16153;SDS011;8182;55.648;13.208;2023-07-24T03:33:24;11.80;;;6.63;;
16153;SDS011;8182;55.648;13.208;2023-07-24T03:35:51;9.70;;;6.90;;
16153;SDS011;8182;55.648;13.208;2023-07-24T03:38:21;18.27;;;6.80;;
16153;SDS011;8182;55.648;13.208;2023-07-24T03:40:50;12.30;;;6.67;;
16153;SDS011;8182;55.648;13.208;2023-07-24T03:43:17;10.67;;;6.53;;
16153;SDS011;8182;55.648;13.208;2023-07-24T03:45:46;9.73;;;6.50;;
16153;SDS011;8182;55.648;13.208;2023-07-24T03:48:13;11.47;;;6.17;;
16153;SDS011;8182;55.648;13.208;2023-07-24T03:50:40;10.23;;;6.63;;
16153;SDS011;8182;55.648;13.208;2023-07-24T03:53:07;9.30;;;6.40;;
16153;SDS011;8182;55.648;13.208;2023-07-24T03:55:34;13.30;;;6.60;;
16153;SDS011;8182;55.648;13.208;2023-07-24T03:58:01;13.80;;;6.47;;
16153;SDS011;8182;55.648;13.208;2023-07-24T04:00:28;13.73;;;6.90;;
16153;SDS011;8182;55.648;13.208;2023-07-24T04:02:57;10.03;;;6.67;;
16153;SDS011;8182;55.648;13.208;2023-07-24T04:05:24;8.93;;;6.23;;
16153;SDS011;8182;55.648;13.208;2023-07-24T04:07:55;8.80;;;6.23;;
16153;SDS011;8182;55.648;13.208;2023-07-24T04:10:22;11.80;;;6.50;;
16153;SDS011;8182;55.648;13.208;2023-07-24T04:12:49;10.73;;;6.87;;
16153;SDS011;8182;55.648;13.208;2023-07-24T04:15:16;12.50;;;6.47;;
16153;SDS011;8182;55.648;13.208;2023-07-24T04:17:43;9.33;;;6.43;;
16153;SDS011;8182;55.648;13.208;2023-07-24T04:20:12;12.00;;;6.17;;
16153;SDS011;8182;55.648;13.208;2023-07-24T04:22:39;10.80;;;6.03;;
16153;SDS011;8182;55.648;13.208;2023-07-24T04:25:06;11.00;;;5.87;;
16153;SDS011;8182;55.648;13.208;2023-07-24T04:27:34;11.57;;;6.27;;
16153;SDS011;8182;55.648;13.208;2023-07-24T04:30:01;15.67;;;6.10;;
16153;SDS011;8182;55.648;13.208;2023-07-24T04:32:28;12.57;;;6.13;;
16153;SDS011;8182;55.648;13.208;2023-07-24T04:34:55;8.67;;;5.80;;
16153;SDS011;8182;55.648;13.208;2023-07-24T04:37:26;9.03;;;5.67;;
16153;SDS011;8182;55.648;13.208;2023-07-24T04:39:53;10.03;;;6.30;;
16153;SDS011;8182;55.648;13.208;2023-07-24T04:42:27;12.47;;;6.07;;
16153;SDS011;8182;55.648;13.208;2023-07-24T04:44:54;9.90;;;5.80;;
16153;SDS011;8182;55.648;13.208;2023-07-24T04:47:24;8.90;;;6.07;;
16153;SDS011;8182;55.648;13.208;2023-07-24T04:49:50;8.10;;;5.90;;
16153;SDS011;8182;55.648;13.208;2023-07-24T04:52:18;13.60;;;6.50;;
16153;SDS011;8182;55.648;13.208;2023-07-24T04:54:46;14.77;;;6.50;;
16153;SDS011;8182;55.648;13.208;2023-07-24T04:57:16;10.47;;;6.40;;
16153;SDS011;8182;55.648;13.208;2023-07-24T04:59:43;11.17;;;6.10;;
16153;SDS011;8182;55.648;13.208;2023-07-24T05:02:10;13.00;;;6.33;;
16153;SDS011;8182;55.648;13.208;2023-07-24T05:04:37;9.10;;;6.23;;
16153;SDS011;8182;55.648;13.208;2023-07-24T05:07:05;11.23;;;6.10;;
16153;SDS011;8182;55.648;13.208;2023-07-24T05:09:35;7.93;;;5.70;;
16153;SDS011;8182;55.648;13.208;2023-07-24T05:12:06;11.37;;;6.10;;
16153;SDS011;8182;55.648;13.208;2023-07-24T05:14:33;11.03;;;6.03;;
16153;SDS011;8182;55.648;13.208;2023-07-24T05:17:03;12.60;;;6.43;;
16153;SDS011;8182;55.648;13.208;2023-07-24T05:19:30;9.20;;;6.10;;
16153;SDS011;8182;55.648;13.208;2023-07-24T05:21:57;12.43;;;5.90;;
16153;SDS011;8182;55.648;13.208;2023-07-24T05:24:28;10.00;;;6.37;;
16153;SDS011;8182;55.648;13.208;2023-07-24T05:26:57;11.00;;;6.30;;
16153;SDS011;8182;55.648;13.208;2023-07-24T05:29:29;8.80;;;6.23;;
16153;SDS011;8182;55.648;13.208;2023-07-24T05:31:56;14.53;;;6.70;;
16153;SDS011;8182;55.648;13.208;2023-07-24T05:34:23;12.63;;;6.33;;
16153;SDS011;8182;55.648;13.208;2023-07-24T05:36:51;8.37;;;6.20;;
16153;SDS011;8182;55.648;13.208;2023-07-24T05:39:20;11.90;;;6.87;;
16153;SDS011;8182;55.648;13.208;2023-07-24T05:41:50;10.37;;;6.27;;
16153;SDS011;8182;55.648;13.208;2023-07-24T05:44:17;9.63;;;6.50;;
16153;SDS011;8182;55.648;13.208;2023-07-24T05:46:47;11.53;;;6.73;;
16153;SDS011;8182;55.648;13.208;2023-07-24T05:49:14;10.30;;;6.50;;
16153;SDS011;8182;55.648;13.208;2023-07-24T05:51:41;11.13;;;6.57;;
16153;SDS011;8182;55.648;13.208;2023-07-24T05:54:10;10.40;;;7.13;;
16153;SDS011;8182;55.648;13.208;2023-07-24T05:56:37;12.53;;;7.37;;
16153;SDS011;8182;55.648;13.208;2023-07-24T05:59:04;11.07;;;7.37;;
16153;SDS011;8182;55.648;13.208;2023-07-24T06:01:31;10.00;;;7.07;;
16153;SDS011;8182;55.648;13.208;2023-07-24T06:04:00;9.63;;;6.60;;
16153;SDS011;8182;55.648;13.208;2023-07-24T06:06:27;9.30;;;6.73;;
16153;SDS011;8182;55.648;13.208;2023-07-24T06:08:54;9.37;;;7.10;;
16153;SDS011;8182;55.648;13.208;2023-07-24T06:11:24;9.87;;;7.30;;
16153;SDS011;8182;55.648;13.208;2023-07-24T06:13:52;10.43;;;7.00;;
16153;SDS011;8182;55.648;13.208;2023-07-24T06:16:19;8.63;;;7.27;;
16153;SDS011;8182;55.648;13.208;2023-07-24T06:18:46;10.80;;;7.93;;
16153;SDS011;8182;55.648;13.208;2023-07-24T06:21:14;9.27;;;7.20;;
16153;SDS011;8182;55.648;13.208;2023-07-24T06:23:41;10.17;;;7.03;;
16153;SDS011;8182;55.648;13.208;2023-07-24T06:26:08;8.63;;;7.17;;
16153;SDS011;8182;55.648;13.208;2023-07-24T06:28:35;12.30;;;7.63;;
16153;SDS011;8182;55.648;13.208;2023-07-24T06:31:01;11.53;;;7.40;;
16153;SDS011;8182;55.648;13.208;2023-07-24T06:33:28;9.80;;;7.47;;
16153;SDS011;8182;55.648;13.208;2023-07-24T06:35:55;9.53;;;7.63;;
16153;SDS011;8182;55.648;13.208;2023-07-24T06:38:24;9.93;;;7.23;;
16153;SDS011;8182;55.648;13.208;2023-07-24T06:40:51;13.43;;;7.63;;
16153;SDS011;8182;55.648;13.208;2023-07-24T06:43:18;9.93;;;7.43;;
16153;SDS011;8182;55.648;13.208;2023-07-24T06:45:45;11.03;;;7.40;;
16153;SDS011;8182;55.648;13.208;2023-07-24T06:48:12;10.70;;;7.67;;
16153;SDS011;8182;55.648;13.208;2023-07-24T06:50:39;11.83;;;8.07;;
16153;SDS011;8182;55.648;13.208;2023-07-24T06:53:06;9.53;;;6.97;;
16153;SDS011;8182;55.648;13.208;2023-07-24T06:55:34;10.37;;;7.37;;
16153;SDS011;8182;55.648;13.208;2023-07-24T06:58:01;10.70;;;7.00;;
16153;SDS011;8182;55.648;13.208;2023-07-24T07:00:28;10.03;;;7.30;;
16153;SDS011;8182;55.648;13.208;2023-07-24T07:02:55;17.60;;;8.20;;
16153;SDS011;8182;55.648;13.208;2023-07-24T07:05:25;15.23;;;8.10;;
16153;SDS011;8182;55.648;13.208;2023-07-24T07:07:55;11.07;;;7.30;;
16153;SDS011;8182;55.648;13.208;2023-07-24T07:10:22;10.97;;;7.43;;
16153;SDS011;8182;55.648;13.208;2023-07-24T07:12:53;13.23;;;7.60;;
16153;SDS011;8182;55.648;13.208;2023-07-24T07:15:20;13.63;;;7.70;;
16153;SDS011;8182;55.648;13.208;2023-07-24T07:17:47;14.03;;;7.90;;
16153;SDS011;8182;55.648;13.208;2023-07-24T07:20:14;8.27;;;7.30;;
16153;SDS011;8182;55.648;13.208;2023-07-24T07:22:43;8.73;;;6.83;;
16153;SDS011;8182;55.648;13.208;2023-07-24T07:25:10;8.83;;;6.90;;
16153;SDS011;8182;55.648;13.208;2023-07-24T07:27:37;8.87;;;7.30;;
16153;SDS011;8182;55.648;13.208;2023-07-24T07:30:09;11.27;;;7.57;;
16153;SDS011;8182;55.648;13.208;2023-07-24T07:32:37;10.27;;;7.50;;
16153;SDS011;8182;55.648;13.208;2023-07-24T07:35:04;10.17;;;6.97;;
16153;SDS011;8182;55.648;13.208;2023-07-24T07:37:32;9.07;;;7.00;;
16153;SDS011;8182;55.648;13.208;2023-07-24T07:39:58;10.23;;;7.37;;
16153;SDS011;8182;55.648;13.208;2023-07-24T07:42:26;9.70;;;6.90;;
16153;SDS011;8182;55.648;13.208;2023-07-24T07:44:59;9.00;;;7.23;;
16153;SDS011;8182;55.648;13.208;2023-07-24T07:47:27;10.03;;;7.03;;
16153;SDS011;8182;55.648;13.208;2023-07-24T07:49:54;14.20;;;7.00;;
16153;SDS011;8182;55.648;13.208;2023-07-24T07:52:21;12.57;;;6.90;;
16153;SDS011;8182;55.648;13.208;2023-07-24T07:54:48;13.43;;;7.27;;
16153;SDS011;8182;55.648;13.208;2023-07-24T07:57:15;8.50;;;7.07;;
16153;SDS011;8182;55.648;13.208;2023-07-24T07:59:44;8.87;;;6.93;;
16153;SDS011;8182;55.648;13.208;2023-07-24T08:02:11;10.50;;;7.43;;
16153;SDS011;8182;55.648;13.208;2023-07-24T08:04:39;12.80;;;6.67;;
16153;SDS011;8182;55.648;13.208;2023-07-24T08:07:08;9.97;;;6.73;;
16153;SDS011;8182;55.648;13.208;2023-07-24T08:09:35;9.40;;;6.83;;
16153;SDS011;8182;55.648;13.208;2023-07-24T08:12:03;9.90;;;7.10;;
16153;SDS011;8182;55.648;13.208;2023-07-24T08:14:39;10.67;;;7.07;;
16153;SDS011;8182;55.648;13.208;2023-07-24T08:17:11;11.37;;;7.40;;
16153;SDS011;8182;55.648;13.208;2023-07-24T08:19:45;11.37;;;7.00;;
16153;SDS011;8182;55.648;13.208;2023-07-24T08:22:17;11.80;;;7.63;;
16153;SDS011;8182;55.648;13.208;2023-07-24T08:25:04;10.63;;;7.60;;
16153;SDS011;8182;55.648;13.208;2023-07-24T08:27:48;9.60;;;7.03;;
16153;SDS011;8182;55.648;13.208;2023-07-24T08:30:24;11.77;;;7.57;;
16153;SDS011;8182;55.648;13.208;2023-07-24T08:33:04;14.00;;;7.10;;
16153;SDS011;8182;55.648;13.208;2023-07-24T08:35:38;10.77;;;7.17;;
16153;SDS011;8182;55.648;13.208;2023-07-24T08:38:15;12.87;;;6.97;;
16153;SDS011;8182;55.648;13.208;2023-07-24T08:41:01;8.90;;;6.97;;
16153;SDS011;8182;55.648;13.208;2023-07-24T08:43:49;9.90;;;6.30;;
16153;SDS011;8182;55.648;13.208;2023-07-24T08:46:23;8.43;;;5.90;;
16153;SDS011;8182;55.648;13.208;2023-07-24T08:48:53;10.13;;;6.30;;
16153;SDS011;8182;55.648;13.208;2023-07-24T08:54:44;8.30;;;6.70;;
16153;SDS011;8182;55.648;13.208;2023-07-24T08:57:53;9.17;;;6.53;;
16153;SDS011;8182;55.648;13.208;2023-07-24T09:00:31;7.03;;;6.13;;
16153;SDS011;8182;55.648;13.208;2023-07-24T09:03:14;9.33;;;5.80;;
16153;SDS011;8182;55.648;13.208;2023-07-24T09:05:58;8.50;;;6.60;;
16153;SDS011;8182;55.648;13.208;2023-07-24T09:08:35;8.27;;;6.43;;
16153;SDS011;8182;55.648;13.208;2023-07-24T09:11:07;10.23;;;6.20;;
16153;SDS011;8182;55.648;13.208;2023-07-24T09:13:43;7.80;;;6.00;;
16153;SDS011;8182;55.648;13.208;2023-07-24T09:16:41;10.17;;;6.33;;
16153;SDS011;8182;55.648;13.208;2023-07-24T09:19:39;10.17;;;5.63;;
16153;SDS011;8182;55.648;13.208;2023-07-24T09:22:29;8.60;;;6.20;;
16153;SDS011;8182;55.648;13.208;2023-07-24T09:25:07;7.67;;;5.80;;
16153;SDS011;8182;55.648;13.208;2023-07-24T09:28:39;8.23;;;6.07;;
16153;SDS011;8182;55.648;13.208;2023-07-24T09:31:13;6.97;;;5.97;;
16153;SDS011;8182;55.648;13.208;2023-07-24T09:33:51;8.40;;;6.13;;
16153;SDS011;8182;55.648;13.208;2023-07-24T09:36:36;7.10;;;5.53;;
16153;SDS011;8182;55.648;13.208;2023-07-24T09:39:22;8.13;;;5.73;;
16153;SDS011;8182;55.648;13.208;2023-07-24T09:42:34;7.77;;;5.90;;
16153;SDS011;8182;55.648;13.208;2023-07-24T09:45:11;7.87;;;6.10;;
16153;SDS011;8182;55.648;13.208;2023-07-24T09:48:15;9.87;;;6.47;;
16153;SDS011;8182;55.648;13.208;2023-07-24T09:50:58;7.73;;;6.30;;
16153;SDS011;8182;55.648;13.208;2023-07-24T09:53:32;8.60;;;5.90;;
16153;SDS011;8182;55.648;13.208;2023-07-24T09:56:17;7.70;;;6.23;;
16153;SDS011;8182;55.648;13.208;2023-07-24T09:58:57;8.17;;;6.03;;
16153;SDS011;8182;55.648;13.208;2023-07-24T10:01:37;10.20;;;6.07;;
16153;SDS011;8182;55.648;13.208;2023-07-24T10:04:10;7.77;;;5.83;;
16153;SDS011;8182;55.648;13.208;2023-07-24T10:06:47;9.80;;;6.23;;
16153;SDS011;8182;55.648;13.208;2023-07-24T10:09:24;9.40;;;5.60;;
16153;SDS011;8182;55.648;13.208;2023-07-24T10:12:26;9.37;;;6.00;;
16153;SDS011;8182;55.648;13.208;2023-07-24T10:15:21;9.07;;;5.90;;
16153;SDS011;8182;55.648;13.208;2023-07-24T10:18:05;10.97;;;6.30;;
16153;SDS011;8182;55.648;13.208;2023-07-24T10:20:37;9.77;;;6.07;;
16153;SDS011;8182;55.648;13.208;2023-07-24T10:23:06;9.77;;;5.77;;
16153;SDS011;8182;55.648;13.208;2023-07-24T10:25:37;14.73;;;6.77;;
16153;SDS011;8182;55.648;13.208;2023-07-24T10:28:06;7.57;;;6.20;;
16153;SDS011;8182;55.648;13.208;2023-07-24T10:30:39;8.50;;;6.20;;
16153;SDS011;8182;55.648;13.208;2023-07-24T10:33:32;8.53;;;6.20;;
16153;SDS011;8182;55.648;13.208;2023-07-24T10:36:04;11.10;;;6.37;;
16153;SDS011;8182;55.648;13.208;2023-07-24T10:38:52;8.50;;;5.70;;
16153;SDS011;8182;55.648;13.208;2023-07-24T10:41:37;12.57;;;5.53;;
16153;SDS011;8182;55.648;13.208;2023-07-24T10:44:37;7.87;;;4.97;;
16153;SDS011;8182;55.648;13.208;2023-07-24T10:50:38;11.90;;;5.80;;
16153;SDS011;8182;55.648;13.208;2023-07-24T10:57:06;10.30;;;5.80;;
16153;SDS011;8182;55.648;13.208;2023-07-24T10:59:42;8.80;;;6.07;;
16153;SDS011;8182;55.648;13.208;2023-07-24T11:02:12;8.33;;;6.10;;
16153;SDS011;8182;55.648;13.208;2023-07-24T11:04:46;10.27;;;5.83;;
16153;SDS011;8182;55.648;13.208;2023-07-24T11:07:14;7.17;;;5.23;;
16153;SDS011;8182;55.648;13.208;2023-07-24T11:09:41;8.73;;;5.00;;
16153;SDS011;8182;55.648;13.208;2023-07-24T11:12:12;10.47;;;5.53;;
16153;SDS011;8182;55.648;13.208;2023-07-24T11:14:49;16.83;;;7.00;;
16153;SDS011;8182;55.648;13.208;2023-07-24T11:17:32;11.40;;;6.43;;
16153;SDS011;8182;55.648;13.208;2023-07-24T11:20:07;12.97;;;6.30;;
16153;SDS011;8182;55.648;13.208;2023-07-24T11:22:41;10.97;;;6.47;;
16153;SDS011;8182;55.648;13.208;2023-07-24T11:25:10;10.10;;;7.40;;
16153;SDS011;8182;55.648;13.208;2023-07-24T11:27:40;11.77;;;6.53;;
16153;SDS011;8182;55.648;13.208;2023-07-24T11:30:11;9.20;;;5.90;;
16153;SDS011;8182;55.648;13.208;2023-07-24T11:32:41;7.47;;;5.70;;
16153;SDS011;8182;55.648;13.208;2023-07-24T11:35:14;7.13;;;5.83;;
16153;SDS011;8182;55.648;13.208;2023-07-24T11:37:42;8.13;;;5.80;;
16153;SDS011;8182;55.648;13.208;2023-07-24T11:40:12;10.23;;;6.43;;
16153;SDS011;8182;55.648;13.208;2023-07-24T11:42:45;9.57;;;6.87;;
16153;SDS011;8182;55.648;13.208;2023-07-24T11:45:14;9.23;;;6.00;;
16153;SDS011;8182;55.648;13.208;2023-07-24T11:47:44;8.97;;;6.23;;
16153;SDS011;8182;55.648;13.208;2023-07-24T11:50:15;9.67;;;6.30;;
16153;SDS011;8182;55.648;13.208;2023-07-24T11:52:44;8.30;;;5.77;;
16153;SDS011;8182;55.648;13.208;2023-07-24T11:55:13;8.87;;;5.70;;
16153;SDS011;8182;55.648;13.208;2023-07-24T11:57:43;6.13;;;5.07;;
16153;SDS011;8182;55.648;13.208;2023-07-24T12:00:24;9.33;;;6.03;;
16153;SDS011;8182;55.648;13.208;2023-07-24T12:02:53;11.00;;;5.77;;
16153;SDS011;8182;55.648;13.208;2023-07-24T12:05:26;9.90;;;6.10;;
16153;SDS011;8182;55.648;13.208;2023-07-24T12:08:04;7.97;;;6.17;;
16153;SDS011;8182;55.648;13.208;2023-07-24T12:10:36;8.87;;;6.00;;
16153;SDS011;8182;55.648;13.208;2023-07-24T12:13:06;9.63;;;6.07;;
16153;SDS011;8182;55.648;13.208;2023-07-24T12:15:33;6.70;;;5.87;;
16153;SDS011;8182;55.648;13.208;2023-07-24T12:18:07;8.17;;;5.77;;
16153;SDS011;8182;55.648;13.208;2023-07-24T12:20:35;8.43;;;5.40;;
16153;SDS011;8182;55.648;13.208;2023-07-24T12:23:05;8.23;;;6.00;;
16153;SDS011;8182;55.648;13.208;2023-07-24T12:25:38;10.37;;;6.20;;
16153;SDS011;8182;55.648;13.208;2023-07-24T12:28:08;8.43;;;5.40;;
16153;SDS011;8182;55.648;13.208;2023-07-24T12:30:45;8.80;;;5.77;;
16153;SDS011;8182;55.648;13.208;2023-07-24T12:33:16;9.03;;;6.10;;
16153;SDS011;8182;55.648;13.208;2023-07-24T12:38:27;7.27;;;5.80;;
16153;SDS011;8182;55.648;13.208;2023-07-24T12:40:57;7.60;;;5.33;;
16153;SDS011;8182;55.648;13.208;2023-07-24T12:43:28;7.40;;;5.53;;
16153;SDS011;8182;55.648;13.208;2023-07-24T12:45:58;9.93;;;5.40;;
16153;SDS011;8182;55.648;13.208;2023-07-24T12:48:28;9.10;;;5.20;;
16153;SDS011;8182;55.648;13.208;2023-07-24T12:50:56;6.80;;;5.23;;
16153;SDS011;8182;55.648;13.208;2023-07-24T12:53:31;6.47;;;5.00;;
16153;SDS011;8182;55.648;13.208;2023-07-24T12:57:07;7.93;;;5.10;;
16153;SDS011;8182;55.648;13.208;2023-07-24T13:02:46;6.60;;;4.83;;
16153;SDS011;8182;55.648;13.208;2023-07-24T13:05:13;9.43;;;5.07;;
16153;SDS011;8182;55.648;13.208;2023-07-24T13:07:40;7.60;;;4.47;;
16153;SDS011;8182;55.648;13.208;2023-07-24T13:10:09;6.10;;;4.40;;
16153;SDS011;8182;55.648;13.208;2023-07-24T13:12:36;5.50;;;4.10;;
16153;SDS011;8182;55.648;13.208;2023-07-24T13:15:03;6.17;;;4.30;;
16153;SDS011;8182;55.648;13.208;2023-07-24T13:17:31;6.17;;;4.23;;
16153;SDS011;8182;55.648;13.208;2023-07-24T13:19:58;6.17;;;4.10;;
16153;SDS011;8182;55.648;13.208;2023-07-24T13:22:25;5.70;;;4.33;;
16153;SDS011;8182;55.648;13.208;2023-07-24T13:24:55;5.20;;;3.53;;
16153;SDS011;8182;55.648;13.208;2023-07-24T13:27:24;4.43;;;3.00;;
16153;SDS011;8182;55.648;13.208;2023-07-24T13:29:53;5.27;;;3.43;;
16153;SDS011;8182;55.648;13.208;2023-07-24T13:32:23;4.40;;;3.50;;
16153;SDS011;8182;55.648;13.208;2023-07-24T13:34:50;4.80;;;3.30;;
16153;SDS011;8182;55.648;13.208;2023-07-24T13:37:17;4.90;;;3.67;;
16153;SDS011;8182;55.648;13.208;2023-07-24T13:39:44;10.57;;;3.40;;
16153;SDS011;8182;55.648;13.208;2023-07-24T13:42:11;3.73;;;3.20;;
16153;SDS011;8182;55.648;13.208;2023-07-24T13:44:43;3.13;;;2.83;;
16153;SDS011;8182;55.648;13.208;2023-07-24T13:47:10;2.80;;;2.60;;
16153;SDS011;8182;55.648;13.208;2023-07-24T13:49:37;3.57;;;2.70;;
16153;SDS011;8182;55.648;13.208;2023-07-24T13:52:04;3.53;;;2.90;;
16153;SDS011;8182;55.648;13.208;2023-07-24T13:54:32;4.93;;;3.00;;
16153;SDS011;8182;55.648;13.208;2023-07-24T13:56:59;3.07;;;2.77;;
16153;SDS011;8182;55.648;13.208;2023-07-24T13:59:25;4.60;;;3.10;;
16153;SDS011;8182;55.648;13.208;2023-07-24T14:01:57;5.73;;;2.93;;
16153;SDS011;8182;55.648;13.208;2023-07-24T14:04:26;4.63;;;2.87;;
16153;SDS011;8182;55.648;13.208;2023-07-24T14:06:53;3.73;;;3.00;;
16153;SDS011;8182;55.648;13.208;2023-07-24T14:09:20;5.57;;;3.10;;
16153;SDS011;8182;55.648;13.208;2023-07-24T14:11:47;3.63;;;3.17;;
16153;SDS011;8182;55.648;13.208;2023-07-24T14:14:15;4.60;;;3.17;;
16153;SDS011;8182;55.648;13.208;2023-07-24T14:16:44;3.70;;;2.90;;
16153;SDS011;8182;55.648;13.208;2023-07-24T14:19:12;3.37;;;2.90;;
16153;SDS011;8182;55.648;13.208;2023-07-24T14:21:40;4.23;;;2.60;;
16153;SDS011;8182;55.648;13.208;2023-07-24T14:24:07;4.47;;;3.07;;
16153;SDS011;8182;55.648;13.208;2023-07-24T14:26:34;4.60;;;2.90;;
16153;SDS011;8182;55.648;13.208;2023-07-24T14:29:02;3.10;;;2.70;;
16153;SDS011;8182;55.648;13.208;2023-07-24T14:31:33;3.57;;;2.80;;
16153;SDS011;8182;55.648;13.208;2023-07-24T14:34:01;4.07;;;2.87;;
16153;SDS011;8182;55.648;13.208;2023-07-24T14:36:30;4.03;;;2.77;;
16153;SDS011;8182;55.648;13.208;2023-07-24T14:38:59;6.20;;;3.17;;
16153;SDS011;8182;55.648;13.208;2023-07-24T14:41:26;5.13;;;3.00;;
16153;SDS011;8182;55.648;13.208;2023-07-24T14:43:53;4.90;;;3.03;;
16153;SDS011;8182;55.648;13.208;2023-07-24T14:46:29;4.60;;;2.97;;
16153;SDS011;8182;55.648;13.208;2023-07-24T14:48:56;6.83;;;3.00;;
16153;SDS011;8182;55.648;13.208;2023-07-24T14:51:23;4.60;;;2.90;;
16153;SDS011;8182;55.648;13.208;2023-07-24T14:53:55;5.40;;;2.93;;
16153;SDS011;8182;55.648;13.208;2023-07-24T14:56:30;5.13;;;2.90;;
16153;SDS011;8182;55.648;13.208;2023-07-24T14:58:57;5.53;;;3.60;;
16153;SDS011;8182;55.648;13.208;2023-07-24T15:01:30;3.50;;;2.83;;
16153;SDS011;8182;55.648;13.208;2023-07-24T15:03:57;4.40;;;3.00;;
16153;SDS011;8182;55.648;13.208;2023-07-24T15:06:27;3.77;;;3.00;;
16153;SDS011;8182;55.648;13.208;2023-07-24T15:09:01;3.03;;;2.40;;
16153;SDS011;8182;55.648;13.208;2023-07-24T15:11:28;4.80;;;2.63;;
16153;SDS011;8182;55.648;13.208;2023-07-24T15:13:55;3.77;;;2.60;;
16153;SDS011;8182;55.648;13.208;2023-07-24T15:16:23;4.67;;;2.70;;
16153;SDS011;8182;55.648;13.208;2023-07-24T15:18:59;3.60;;;2.20;;
16153;SDS011;8182;55.648;13.208;2023-07-24T15:21:29;5.30;;;2.40;;